Terminal Aerodrome Forecast
Issued by NWS Pittsburgh, PA

Current Version | Previous Version | Text Only | Print | Product List | Glossary Off
Versions: 1 2 3 4 5 6 7 8 9 10 11 12 13 14 15 16 17 18 19 20 21 22 23 24 25 26 27 28 29 30

000
FTUS41 KPBZ 282300
TAFPIT
TAF
KPIT 282338Z 2900/3006 27012G24KT P6SM -SHRA BKN035
     FM290200 26007KT P6SM SCT120
     FM291500 26010G16KT P6SM BKN050
     FM292200 28008KT P6SM BKN050=

USA.gov is the U.S. government's official web portal to all federal, state and local government web resources and services.